Hovedside
METAR-TAF:

METAR-TAF

Lufthavner :

Curaçao, De nederlandske Antillene

Curaçao internasjonale lufthavn

breddegrad: 12-12N, lengdegrad: 068-58W, høyde over havet: 9 m

Gjeldene værobservasjon

Denne rapporten ble laget for 32 minutter siden, klokken 22:00 UTC
Vind 12 kt fra Øst-sørøst
Temperatur 27°C
Luftfuktighet 74%
Trykk 1011 hPa
Sikt 10 km eller mer
Få skyer i en høyde av 2200 ft

METAR: TNCC 212200Z 11012KT 9999 FEW022 27/22 Q1011 NOSIG

Tid: 18:32 (22:32 UTC)

Varsel

Denne rapporten ble laget for 6 timer og 32 minutter siden, klokken 16:00 UTC
Varsel gyldig fra 21. klokken 18 UTC til 22. klokken 18 UTC
Vind 15 kt fra Øst
Sikt 10 km eller mer
Spredte skyer i en høyde av 1800 ft
Midlertidig
fra 21. klokken 18 UTC til 21. klokken 24 UTC
Brutte skyer i en høyde av 1400 ft
Midlertidig
fra 22. klokken 04 UTC til 22. klokken 12 UTC
Sikt: 5000 m
Brutte skyer i en høyde av 1400 ft
regnbyger

TAF: TNCC 211600Z 2118/2218 10015KT 9999 SCT018 TEMPO 2118/2124 BKN014 TEMPO 2204/2212 5000 SHRA BKN014

Værobservasjoner og værvarsel for over 4000 flyplasser (METAR- og TAF-rapporter).

Tilgjengelige stasjoner er representert av de røde og gule prikkene på kartet.

Hold musepekeren over prikken for å se navnet på stasjonen.

Klikk så for å se værobservasjoner og -varsler.

For å forandre kartet kan du klikke på den grønne knappen med svart kryss for å zoome inn, på den grønne knappen med strek for å zoome ut, eller på de grønne pilene for å se tilstøtende kart.


METAR-TAF: